createdAt,value
2022-10-12T00:00:38.304Z,15.09
2022-10-12T00:03:05.855Z,15.04
2022-10-12T00:05:33.422Z,15.01
2022-10-12T00:08:01.011Z,14.98
2022-10-12T00:10:29.905Z,14.99
2022-10-12T00:12:57.482Z,14.97
2022-10-12T00:15:25.097Z,14.96
2022-10-12T00:17:53.922Z,14.96
2022-10-12T00:20:21.854Z,14.96
2022-10-12T00:22:49.543Z,14.97
2022-10-12T00:25:17.251Z,14.99
2022-10-12T00:27:46.837Z,15.00
2022-10-12T00:30:14.710Z,15.04
2022-10-12T00:32:42.739Z,15.03
2022-10-12T00:35:10.519Z,15.10
2022-10-12T00:37:38.475Z,15.13
2022-10-12T00:40:07.568Z,15.07
2022-10-12T00:42:35.547Z,15.03
2022-10-12T00:45:05.037Z,15.00
2022-10-12T00:47:36.272Z,15.02
2022-10-12T00:50:10.695Z,15.02
2022-10-12T00:52:43.321Z,14.97
2022-10-12T00:55:14.340Z,14.97
2022-10-12T00:57:46.724Z,15.06
2022-10-12T01:00:17.254Z,15.04
2022-10-12T01:02:48.410Z,14.99
2022-10-12T01:05:16.347Z,14.94
2022-10-12T01:07:44.335Z,14.91
2022-10-12T01:10:12.630Z,14.90
2022-10-12T01:12:43.026Z,14.89
2022-10-12T01:15:12.346Z,14.88
2022-10-12T01:17:52.241Z,14.86
2022-10-12T01:21:03.239Z,14.87
2022-10-12T01:24:09.223Z,14.82
2022-10-12T01:27:07.429Z,14.80
2022-10-12T01:30:06.154Z,14.82
2022-10-12T01:32:41.411Z,14.83
2022-10-12T01:35:16.909Z,14.82
2022-10-12T01:37:53.621Z,14.83
2022-10-12T01:40:27.915Z,14.84
2022-10-12T01:42:56.507Z,14.84
2022-10-12T01:45:25.921Z,14.87
2022-10-12T01:47:55.786Z,14.87
2022-10-12T01:50:28.920Z,14.87
2022-10-12T01:53:02.457Z,14.87
2022-10-12T01:55:39.819Z,14.86
2022-10-12T01:58:27.295Z,14.84
2022-10-12T02:01:03.518Z,14.86
2022-10-12T02:03:40.691Z,14.84
2022-10-12T02:06:12.836Z,14.88
2022-10-12T02:08:48.542Z,14.87
2022-10-12T02:11:18.287Z,14.91
2022-10-12T02:13:50.126Z,14.93
2022-10-12T02:16:21.748Z,14.95
2022-10-12T02:18:54.251Z,14.91
2022-10-12T02:21:26.717Z,14.91
2022-10-12T02:23:57.114Z,14.89
2022-10-12T02:26:24.934Z,14.87
2022-10-12T02:28:52.666Z,14.85
2022-10-12T02:31:29.539Z,14.84
2022-10-12T02:34:02.125Z,14.86
2022-10-12T02:36:37.573Z,14.85
2022-10-12T02:39:12.416Z,14.83
2022-10-12T02:41:45.060Z,14.80
2022-10-12T02:44:16.439Z,14.81
2022-10-12T02:46:49.127Z,14.81
2022-10-12T02:49:18.479Z,14.79
2022-10-12T02:51:46.565Z,14.78
2022-10-12T02:54:14.504Z,14.79
2022-10-12T02:56:45.876Z,14.76
2022-10-12T02:59:13.887Z,14.78
2022-10-12T03:01:41.839Z,14.77
2022-10-12T03:04:11.205Z,14.77
2022-10-12T03:06:39.067Z,14.78
2022-10-12T03:09:07.361Z,14.76
2022-10-12T03:11:34.961Z,14.76
2022-10-12T03:14:02.529Z,14.74
2022-10-12T03:16:30.175Z,14.71
2022-10-12T03:18:57.726Z,14.71
2022-10-12T03:21:26.701Z,14.71
2022-10-12T03:23:54.366Z,14.74
2022-10-12T03:26:23.037Z,14.73
2022-10-12T03:28:50.932Z,14.70
2022-10-12T03:31:18.593Z,14.68
2022-10-12T03:33:46.273Z,14.69
2022-10-12T03:36:14.258Z,14.70
2022-10-12T03:38:43.169Z,14.70
2022-10-12T03:41:10.887Z,14.67
2022-10-12T03:43:38.467Z,14.67
2022-10-12T03:46:06.566Z,14.66
2022-10-12T03:48:34.311Z,14.63
2022-10-12T03:51:01.903Z,14.63
2022-10-12T03:53:29.442Z,14.64
2022-10-12T03:55:58.508Z,14.65
2022-10-12T03:58:26.553Z,14.64
2022-10-12T04:00:54.723Z,14.61
2022-10-12T04:03:23.053Z,14.61
2022-10-12T04:05:54.558Z,14.59
2022-10-12T04:08:22.367Z,14.60
2022-10-12T04:10:51.232Z,14.60
2022-10-12T04:13:20.880Z,14.60
2022-10-12T04:15:48.448Z,14.57
2022-10-12T04:18:16.025Z,14.58
2022-10-12T04:20:43.651Z,14.60
2022-10-12T04:23:11.361Z,14.61
2022-10-12T04:25:38.991Z,14.59
2022-10-12T04:28:06.652Z,14.61
2022-10-12T04:30:35.622Z,14.56
2022-10-12T04:33:03.215Z,14.57
2022-10-12T04:35:30.893Z,14.59
2022-10-12T04:37:58.457Z,14.58
2022-10-12T04:40:26.098Z,14.60
2022-10-12T04:42:53.661Z,14.60
2022-10-12T04:45:21.213Z,14.57
2022-10-12T04:47:50.216Z,14.58
2022-10-12T04:50:18.007Z,14.58
2022-10-12T04:52:45.595Z,14.61
2022-10-12T04:55:13.161Z,14.59
2022-10-12T04:57:41.414Z,14.57
2022-10-12T05:00:10.724Z,14.58
2022-10-12T05:02:38.289Z,14.58
2022-10-12T05:05:07.773Z,14.57
2022-10-12T05:07:35.531Z,14.82
2022-10-12T05:10:03.252Z,14.94
2022-10-12T05:12:30.831Z,14.87
2022-10-12T05:14:58.382Z,14.79
2022-10-12T05:17:26.013Z,14.73
2022-10-12T05:19:53.575Z,14.71
2022-10-12T05:22:22.551Z,14.63
2022-10-12T05:24:53.832Z,14.61
2022-10-12T05:27:21.946Z,14.68
2022-10-12T05:29:49.515Z,14.71
2022-10-12T05:32:17.200Z,14.67
2022-10-12T05:34:44.809Z,14.64
2022-10-12T05:37:12.738Z,14.62
2022-10-12T05:39:41.751Z,14.61
2022-10-12T05:42:09.702Z,14.60
2022-10-12T05:44:37.273Z,14.57
2022-10-12T05:47:04.927Z,14.58
2022-10-12T05:49:32.521Z,14.56
2022-10-12T05:52:00.103Z,14.58
2022-10-12T05:54:27.765Z,14.57
2022-10-12T05:56:57.179Z,14.57
2022-10-12T05:59:24.720Z,14.55
2022-10-12T06:01:52.873Z,14.56
2022-10-12T06:04:20.674Z,14.57
2022-10-12T06:06:48.315Z,14.58
2022-10-12T06:09:16.123Z,14.56
2022-10-12T06:11:43.700Z,14.60
2022-10-12T06:14:12.703Z,14.57
2022-10-12T06:16:40.333Z,14.55
2022-10-12T06:19:07.916Z,14.54
2022-10-12T06:21:35.453Z,14.54
2022-10-12T06:24:03.121Z,14.55
2022-10-12T06:26:30.706Z,14.59
2022-10-12T06:29:00.532Z,14.61
2022-10-12T06:31:29.935Z,14.61
2022-10-12T06:33:57.612Z,14.60
2022-10-12T06:36:25.146Z,14.59
2022-10-12T06:38:53.111Z,14.60
2022-10-12T06:41:20.782Z,14.62
2022-10-12T06:43:48.361Z,14.64
2022-10-12T06:46:15.891Z,14.62
2022-10-12T06:48:44.863Z,14.63
2022-10-12T06:51:12.578Z,14.64
2022-10-12T06:53:40.427Z,14.65
2022-10-12T06:56:08.788Z,14.66
2022-10-12T06:58:36.356Z,14.65
2022-10-12T07:01:04.916Z,14.66
2022-10-12T07:03:33.822Z,14.66
2022-10-12T07:06:13.272Z,14.67
2022-10-12T07:08:42.113Z,14.69
2022-10-12T07:11:12.502Z,14.71
2022-10-12T07:13:40.489Z,14.76
2022-10-12T07:16:09.017Z,14.77
2022-10-12T07:18:36.814Z,14.80
2022-10-12T07:21:04.738Z,14.83
2022-10-12T07:23:35.486Z,14.84
2022-10-12T07:26:03.062Z,14.85
2022-10-12T07:28:30.696Z,14.87
2022-10-12T07:31:03.161Z,14.88
2022-10-12T07:33:34.980Z,14.91
2022-10-12T07:36:13.844Z,14.92
2022-10-12T07:38:45.190Z,14.98
2022-10-12T07:41:16.017Z,15.05
2022-10-12T07:43:43.870Z,14.97
2022-10-12T07:46:12.397Z,14.99
2022-10-12T07:48:44.510Z,15.03
2022-10-12T07:51:13.806Z,15.04
2022-10-12T07:53:45.108Z,15.05
2022-10-12T07:56:15.856Z,15.06
2022-10-12T07:58:43.578Z,15.09
2022-10-12T08:01:11.327Z,15.08
2022-10-12T08:03:39.781Z,15.09
2022-10-12T08:06:11.585Z,15.10
2022-10-12T08:08:39.316Z,15.10
2022-10-12T08:11:09.136Z,15.09
2022-10-12T08:13:37.641Z,15.11
2022-10-12T08:16:06.869Z,15.12
2022-10-12T08:18:34.512Z,15.16
2022-10-12T08:21:04.927Z,15.18
2022-10-12T08:23:32.574Z,15.17
2022-10-12T08:26:00.171Z,15.16
2022-10-12T08:28:29.634Z,15.20
2022-10-12T08:30:57.629Z,15.21
2022-10-12T08:33:25.671Z,15.21
2022-10-12T08:35:53.237Z,15.18
2022-10-12T08:38:20.781Z,15.15
2022-10-12T08:40:53.538Z,15.17
2022-10-12T08:43:30.010Z,15.34
2022-10-12T08:46:00.951Z,15.28
2022-10-12T08:48:33.942Z,15.25
2022-10-12T08:51:06.358Z,15.23
2022-10-12T08:53:38.954Z,15.25
2022-10-12T08:56:09.097Z,15.21
2022-10-12T08:58:39.354Z,15.20
2022-10-12T09:01:19.458Z,15.17
2022-10-12T09:04:00.023Z,15.18
2022-10-12T09:06:33.623Z,15.19
2022-10-12T09:09:10.984Z,15.21
2022-10-12T09:11:54.468Z,15.25
2022-10-12T09:14:26.991Z,15.27
2022-10-12T09:16:56.791Z,15.28
2022-10-12T09:19:32.831Z,15.32
2022-10-12T09:22:01.314Z,15.34
2022-10-12T09:24:32.482Z,15.37
2022-10-12T09:27:05.026Z,15.37
2022-10-12T09:29:32.819Z,15.41
2022-10-12T09:32:27.368Z,15.48
2022-10-12T09:34:57.284Z,15.45
2022-10-12T09:37:28.581Z,15.43
2022-10-12T09:39:57.003Z,15.47
2022-10-12T09:42:24.593Z,15.47
2022-10-12T09:44:57.521Z,15.52
2022-10-12T09:47:29.622Z,15.54
2022-10-12T09:49:58.794Z,15.66
2022-10-12T09:52:30.862Z,15.69
2022-10-12T09:55:03.667Z,15.81
2022-10-12T09:57:35.178Z,15.85
2022-10-12T10:00:08.515Z,15.86
2022-10-12T10:02:49.290Z,15.81
2022-10-12T10:05:25.991Z,15.83
2022-10-12T10:07:53.808Z,15.83
2022-10-12T10:10:29.443Z,15.87
2022-10-12T10:13:01.209Z,15.86
2022-10-12T10:15:31.506Z,15.84
2022-10-12T10:18:02.960Z,15.84
2022-10-12T10:20:34.101Z,15.84
2022-10-12T10:23:04.581Z,15.84
2022-10-12T10:25:33.169Z,15.85
2022-10-12T10:28:23.210Z,15.89
2022-10-12T10:31:00.170Z,15.90
2022-10-12T10:33:30.350Z,15.92
2022-10-12T10:36:05.100Z,15.96
2022-10-12T10:38:34.915Z,15.98
2022-10-12T10:41:06.945Z,15.99
2022-10-12T10:43:35.780Z,16.01
2022-10-12T10:46:05.305Z,16.00
2022-10-12T10:48:50.968Z,16.01
2022-10-12T10:51:18.691Z,15.97
2022-10-12T10:53:48.564Z,15.98
2022-10-12T10:56:21.142Z,16.03
2022-10-12T10:58:52.121Z,16.05
2022-10-12T11:01:25.106Z,16.10
2022-10-12T11:04:00.515Z,16.10
2022-10-12T11:06:36.272Z,16.18
2022-10-12T11:09:12.156Z,16.30
2022-10-12T11:11:42.832Z,16.23
2022-10-12T11:14:16.322Z,16.41
2022-10-12T11:16:48.229Z,16.31
2022-10-12T11:19:27.302Z,16.29
2022-10-12T11:21:58.066Z,16.34
2022-10-12T11:24:29.906Z,16.44
2022-10-12T11:27:02.824Z,16.36
2022-10-12T11:29:30.430Z,16.40
2022-10-12T11:32:03.246Z,16.36
2022-10-12T11:34:46.725Z,16.34
2022-10-12T11:37:20.784Z,16.33
2022-10-12T11:39:53.581Z,16.35
2022-10-12T11:42:30.115Z,16.32
2022-10-12T11:45:00.327Z,16.32
2022-10-12T11:47:35.717Z,16.27
2022-10-12T11:50:08.452Z,16.27
2022-10-12T11:52:40.790Z,16.28
2022-10-12T11:55:31.353Z,16.30
2022-10-12T11:58:09.055Z,16.31
2022-10-12T12:00:54.395Z,16.28
2022-10-12T12:03:29.876Z,16.29
2022-10-12T12:06:37.346Z,16.30
2022-10-12T12:09:20.145Z,16.32
2022-10-12T12:11:47.710Z,16.31
2022-10-12T12:14:46.902Z,16.36
2022-10-12T12:17:25.889Z,16.36
2022-10-12T12:19:57.952Z,16.43
2022-10-12T12:22:32.612Z,16.52
2022-10-12T12:25:19.086Z,16.64
2022-10-12T12:27:50.813Z,16.58
2022-10-12T12:30:26.892Z,16.54
2022-10-12T12:32:56.791Z,16.65
2022-10-12T12:35:29.058Z,16.77
2022-10-12T12:38:08.608Z,16.87
2022-10-12T12:40:36.938Z,16.73
2022-10-12T12:43:22.252Z,16.67
2022-10-12T12:46:00.613Z,16.62
2022-10-12T12:48:59.995Z,16.59
2022-10-12T12:51:37.272Z,16.52
2022-10-12T12:54:13.393Z,16.53
2022-10-12T12:56:50.714Z,16.57
2022-10-12T12:59:46.522Z,16.54
2022-10-12T13:02:52.472Z,16.72
2022-10-12T13:05:54.591Z,16.63
2022-10-12T13:08:34.061Z,16.56
2022-10-12T13:11:38.731Z,16.55
2022-10-12T13:14:23.836Z,16.49
2022-10-12T13:19:54.955Z,16.51
2022-10-12T13:22:28.605Z,16.49
2022-10-12T13:25:02.245Z,16.46
2022-10-12T13:27:35.659Z,16.46
2022-10-12T13:30:09.605Z,16.57
2022-10-12T13:32:50.880Z,16.63
2022-10-12T13:35:26.739Z,16.55
2022-10-12T13:38:02.503Z,16.70
2022-10-12T13:40:32.703Z,16.65
2022-10-12T13:43:27.991Z,16.59
2022-10-12T13:45:56.377Z,16.54
2022-10-12T13:48:54.053Z,16.50
2022-10-12T13:51:24.046Z,16.45
2022-10-12T13:53:51.754Z,16.47
2022-10-12T13:56:21.206Z,16.44
2022-10-12T13:58:53.481Z,16.44
2022-10-12T14:01:21.254Z,16.44
2022-10-12T14:03:48.885Z,16.45
2022-10-12T14:06:28.545Z,16.48
2022-10-12T14:08:57.921Z,16.85
2022-10-12T14:11:29.495Z,16.66
2022-10-12T14:13:59.360Z,16.66
2022-10-12T14:16:27.148Z,16.57
2022-10-12T14:18:54.777Z,16.55
2022-10-12T14:21:26.663Z,16.51
2022-10-12T14:23:56.185Z,16.48
2022-10-12T14:26:26.715Z,16.44
2022-10-12T14:28:54.763Z,16.43
2022-10-12T14:31:54.309Z,16.42
2022-10-12T14:34:47.481Z,16.56
2022-10-12T14:37:26.326Z,16.51
2022-10-12T14:40:00.206Z,16.46
2022-10-12T14:42:33.976Z,16.46
2022-10-12T14:45:03.034Z,16.43
2022-10-12T14:47:36.156Z,16.42
2022-10-12T14:50:08.376Z,16.39
2022-10-12T14:52:41.355Z,16.40
2022-10-12T14:55:18.642Z,16.37
2022-10-12T14:57:49.440Z,16.38
2022-10-12T15:00:19.462Z,16.40
2022-10-12T15:02:49.673Z,16.37
2022-10-12T15:05:21.220Z,16.35
2022-10-12T15:07:50.278Z,16.39
2022-10-12T15:10:20.868Z,16.36
2022-10-12T15:12:48.895Z,16.33
2022-10-12T15:15:33.354Z,16.38
2022-10-12T15:18:03.027Z,16.37
2022-10-12T15:20:32.428Z,16.34
2022-10-12T15:23:00.526Z,16.35
2022-10-12T15:25:38.593Z,16.31
2022-10-12T15:28:07.007Z,16.29
2022-10-12T15:30:36.066Z,16.36
2022-10-12T15:33:11.026Z,16.30
2022-10-12T15:35:38.681Z,16.24
2022-10-12T15:38:06.542Z,16.22
2022-10-12T15:40:35.471Z,16.15
2022-10-12T15:43:03.077Z,16.30
2022-10-12T15:45:33.757Z,16.45
2022-10-12T15:48:02.225Z,16.33
2022-10-12T15:50:36.944Z,16.30
2022-10-12T15:53:04.932Z,16.25
2022-10-12T15:55:33.581Z,16.26
2022-10-12T15:58:01.528Z,16.33
2022-10-12T16:00:32.730Z,16.23
2022-10-12T16:03:02.406Z,16.21
2022-10-12T16:05:33.686Z,16.24
2022-10-12T16:08:01.864Z,16.26
2022-10-12T16:10:31.815Z,16.28
2022-10-12T16:12:59.770Z,16.47
2022-10-12T16:15:31.111Z,16.42
2022-10-12T16:17:59.613Z,16.38
2022-10-12T16:20:27.926Z,16.30
2022-10-12T16:22:57.235Z,16.22
2022-10-12T16:25:26.134Z,16.43
2022-10-12T16:27:55.711Z,16.33
2022-10-12T16:30:24.293Z,16.23
2022-10-12T16:32:52.597Z,16.15
2022-10-12T16:35:20.490Z,16.10
2022-10-12T16:37:50.958Z,16.13
2022-10-12T16:40:20.225Z,16.08
2022-10-12T16:42:53.069Z,16.07
2022-10-12T16:45:20.955Z,16.20
2022-10-12T16:47:50.446Z,16.21
2022-10-12T16:50:18.871Z,16.19
2022-10-12T16:52:46.600Z,16.13
2022-10-12T16:55:14.415Z,16.15
2022-10-12T16:57:43.897Z,16.20
2022-10-12T17:00:14.781Z,16.24
2022-10-12T17:02:42.853Z,16.12
2022-10-12T17:05:10.449Z,16.04
2022-10-12T17:07:38.037Z,16.06
2022-10-12T17:10:06.659Z,16.05
2022-10-12T17:12:35.297Z,16.14
2022-10-12T17:15:05.678Z,16.02
2022-10-12T17:17:33.296Z,16.13
2022-10-12T17:22:34.733Z,15.99
2022-10-12T17:25:02.371Z,15.98
2022-10-12T17:27:32.305Z,15.92
2022-10-12T17:30:04.043Z,15.87
2022-10-12T17:32:37.465Z,15.90
2022-10-12T17:35:05.679Z,15.92
2022-10-12T17:37:33.460Z,15.90
2022-10-12T17:40:01.222Z,15.96
2022-10-12T17:42:28.841Z,15.99
2022-10-12T17:44:59.048Z,16.07
2022-10-12T17:47:26.641Z,16.16
2022-10-12T17:49:55.639Z,16.19
2022-10-12T17:52:23.278Z,16.30
2022-10-12T17:54:50.886Z,16.41
2022-10-12T17:57:19.112Z,16.44
2022-10-12T17:59:47.220Z,16.30
2022-10-12T18:02:14.879Z,16.51
2022-10-12T18:04:42.580Z,16.59
2022-10-12T18:07:11.589Z,16.53
2022-10-12T18:09:39.480Z,16.33
2022-10-12T18:12:07.467Z,16.18
2022-10-12T18:14:35.269Z,16.01
2022-10-12T18:17:03.648Z,15.91
2022-10-12T18:19:32.457Z,15.96
2022-10-12T18:22:00.025Z,15.87
2022-10-12T18:24:29.125Z,15.81
2022-10-12T18:26:56.802Z,15.90
2022-10-12T18:29:24.387Z,15.87
2022-10-12T18:31:53.056Z,15.83
2022-10-12T18:34:20.696Z,15.76
2022-10-12T18:36:48.316Z,15.69
2022-10-12T18:39:16.435Z,15.62
2022-10-12T18:41:45.951Z,15.60
2022-10-12T18:44:15.027Z,15.57
2022-10-12T18:46:42.690Z,15.52
2022-10-12T18:49:12.056Z,15.51
2022-10-12T18:51:41.677Z,15.64
2022-10-12T18:54:12.734Z,15.66
2022-10-12T18:56:41.764Z,15.60
2022-10-12T18:59:12.722Z,15.53
2022-10-12T19:01:40.386Z,15.52
2022-10-12T19:04:07.974Z,15.58
2022-10-12T19:06:37.893Z,15.51
2022-10-12T19:09:06.542Z,15.45
2022-10-12T19:11:36.235Z,15.39
2022-10-12T19:14:05.940Z,15.36
2022-10-12T19:16:36.069Z,15.28
2022-10-12T19:19:07.131Z,15.26
2022-10-12T19:21:35.287Z,15.34
2022-10-12T19:24:03.768Z,15.31
2022-10-12T19:26:31.499Z,15.24
2022-10-12T19:28:59.818Z,15.22
2022-10-12T19:31:29.730Z,15.18
2022-10-12T19:34:00.204Z,15.51
2022-10-12T19:36:29.074Z,15.53
2022-10-12T19:38:57.229Z,15.82
2022-10-12T19:41:25.451Z,15.93
2022-10-12T19:43:53.959Z,15.88
2022-10-12T19:46:21.837Z,15.73
2022-10-12T19:48:51.285Z,15.52
2022-10-12T19:51:21.873Z,15.55
2022-10-12T19:53:53.611Z,15.59
2022-10-12T19:56:22.056Z,15.58
2022-10-12T19:58:51.167Z,15.58
2022-10-12T20:01:21.248Z,15.51
2022-10-12T20:03:50.614Z,15.50
2022-10-12T20:06:20.014Z,15.43
2022-10-12T20:08:48.051Z,15.26
2022-10-12T20:11:22.546Z,15.23
2022-10-12T20:13:53.036Z,15.19
2022-10-12T20:16:21.854Z,15.13
2022-10-12T20:18:50.415Z,15.12
2022-10-12T20:21:21.280Z,15.19
2022-10-12T20:23:50.145Z,15.23
2022-10-12T20:26:19.827Z,15.18
2022-10-12T20:28:47.844Z,15.07
2022-10-12T20:31:16.354Z,14.99
2022-10-12T20:33:44.287Z,14.87
2022-10-12T20:36:22.644Z,14.83
2022-10-12T20:38:51.663Z,14.79
2022-10-12T20:41:21.512Z,15.01
2022-10-12T20:43:49.279Z,15.53
2022-10-12T20:46:18.591Z,15.38
2022-10-12T20:48:46.995Z,15.40
2022-10-12T20:51:20.203Z,15.37
2022-10-12T20:53:47.824Z,15.21
2022-10-12T20:56:16.841Z,15.12
2022-10-12T20:58:44.491Z,14.96
2022-10-12T21:01:14.593Z,14.86
2022-10-12T21:03:42.639Z,14.92
2022-10-12T21:06:22.044Z,14.97
2022-10-12T21:08:51.058Z,14.90
2022-10-12T21:11:20.370Z,14.96
2022-10-12T21:13:48.555Z,15.22
2022-10-12T21:16:16.478Z,15.47
2022-10-12T21:18:44.440Z,15.43
2022-10-12T21:21:13.685Z,15.38
2022-10-12T21:23:42.169Z,15.42
2022-10-12T21:26:11.241Z,15.42
2022-10-12T21:28:40.452Z,15.28
2022-10-12T21:31:08.660Z,15.19
2022-10-12T21:33:37.690Z,15.36
2022-10-12T21:36:09.493Z,15.33
2022-10-12T21:38:37.466Z,15.47
2022-10-12T21:41:05.376Z,15.71
2022-10-12T21:43:33.215Z,15.77
2022-10-12T21:46:05.199Z,15.83
2022-10-12T21:48:33.436Z,15.74
2022-10-12T21:51:02.195Z,15.53
2022-10-12T21:53:30.314Z,15.14
2022-10-12T21:55:58.004Z,14.96
2022-10-12T21:58:25.736Z,14.90
2022-10-12T22:00:53.770Z,14.90
2022-10-12T22:03:23.632Z,14.74
2022-10-12T22:05:51.258Z,14.76
2022-10-12T22:08:18.837Z,14.80
2022-10-12T22:10:46.401Z,15.25
2022-10-12T22:13:14.060Z,15.33
2022-10-12T22:15:41.650Z,15.25
2022-10-12T22:18:09.210Z,15.36
2022-10-12T22:20:38.702Z,15.25
2022-10-12T22:23:06.614Z,15.19
2022-10-12T22:25:34.197Z,15.42
2022-10-12T22:28:01.906Z,15.38
2022-10-12T22:30:29.556Z,15.28
2022-10-12T22:32:57.137Z,15.21
2022-10-12T22:35:25.038Z,15.08
2022-10-12T22:37:53.906Z,14.77
2022-10-12T22:40:21.497Z,14.62
2022-10-12T22:42:49.209Z,14.50
2022-10-12T22:45:17.283Z,14.34
2022-10-12T22:47:45.185Z,14.28
2022-10-12T22:50:12.784Z,14.39
2022-10-12T22:52:40.326Z,14.45
2022-10-12T22:55:10.441Z,14.52
2022-10-12T22:57:37.990Z,14.89
2022-10-12T23:00:06.390Z,14.82
2022-10-12T23:02:34.373Z,14.68
2022-10-12T23:05:01.921Z,14.98
2022-10-12T23:07:29.566Z,15.06
2022-10-12T23:09:57.535Z,14.83
2022-10-12T23:12:26.502Z,14.52
2022-10-12T23:14:54.346Z,14.34
2022-10-12T23:17:23.234Z,14.52
2022-10-12T23:19:50.808Z,14.73
2022-10-12T23:22:18.676Z,14.68
2022-10-12T23:24:47.094Z,14.81
2022-10-12T23:27:14.932Z,15.01
2022-10-12T23:29:44.051Z,15.07
2022-10-12T23:32:11.699Z,14.94
2022-10-12T23:34:39.424Z,14.86
2022-10-12T23:37:07.246Z,15.00
2022-10-12T23:39:34.939Z,14.93
2022-10-12T23:42:02.664Z,14.80
2022-10-12T23:44:30.240Z,14.70
2022-10-12T23:46:59.184Z,14.65
2022-10-12T23:49:26.767Z,14.38
2022-10-12T23:51:54.407Z,14.43
2022-10-12T23:54:22.401Z,14.68
2022-10-12T23:56:50.020Z,14.68
2022-10-12T23:59:17.622Z,14.73
